Time;durP1;ratioP1;P1;durP2;ratioP2;P2;SDS_P1;SDS_P2;PMS_P1;PMS_P2;Temp;Humidity;BMP_temperature;BMP_pressure;BME280_temperature;BME280_humidity;BME280_pressure;Samples;Min_cycle;Max_cycle;Signal;HPM_P1;HPM_P2
2023/03/18 00:03:51;;;;;;;11.93;6.68;;;4.40;99.90;;;;;;8203854;28;20015;-82
2023/03/18 00:07:52;;;;;;;14.98;6.90;;;4.40;99.90;;;;;;8203160;28;20035;-81
2023/03/18 00:11:55;;;;;;;14.93;6.38;;;4.50;99.90;;;;;;8210390;28;20114;-81
2023/03/18 00:15:56;;;;;;;12.95;5.90;;;4.50;99.90;;;;;;8207608;28;20457;-79
2023/03/18 00:19:56;;;;;;;14.65;6.00;;;4.60;99.90;;;;;;8206620;28;20027;-81
2023/03/18 00:23:57;;;;;;;10.23;5.65;;;4.60;99.90;;;;;;8201629;28;20039;-81
2023/03/18 00:27:58;;;;;;;14.73;5.80;;;4.60;99.90;;;;;;8201736;28;20078;-82
2023/03/18 00:31:59;;;;;;;10.32;5.65;;;4.80;99.90;;;;;;8200004;28;20031;-82
2023/03/18 00:35:59;;;;;;;7.97;4.60;;;4.70;99.90;;;;;;8199426;28;21040;-81
2023/03/18 00:40:06;;;;;;;12.60;5.13;;;4.90;99.90;;;;;;8199471;28;20028;-82
2023/03/18 00:44:07;;;;;;;8.48;4.20;;;4.80;99.90;;;;;;8200726;28;20015;-81
2023/03/18 00:48:07;;;;;;;9.93;4.15;;;4.90;99.90;;;;;;8199167;28;20692;-81
2023/03/18 00:52:08;;;;;;;9.18;3.80;;;4.90;99.90;;;;;;8199395;28;20160;-81
2023/03/18 00:56:10;;;;;;;7.63;4.10;;;4.80;99.90;;;;;;8205296;28;20420;-81
2023/03/18 01:00:11;;;;;;;7.97;3.67;;;4.70;99.90;;;;;;8206852;28;20435;-81
2023/03/18 01:04:11;;;;;;;7.07;3.30;;;4.70;99.90;;;;;;8205039;28;20078;-82
2023/03/18 01:08:12;;;;;;;6.65;3.45;;;4.70;99.90;;;;;;8204531;28;20107;-81
2023/03/18 01:12:13;;;;;;;6.95;3.30;;;4.80;99.90;;;;;;8204902;28;20626;-81
2023/03/18 01:16:14;;;;;;;5.68;3.17;;;4.80;99.90;;;;;;8205694;28;20063;-81
2023/03/18 01:20:17;;;;;;;6.32;3.20;;;5.60;99.90;;;;;;8203170;28;20020;-80
2023/03/18 01:24:17;;;;;;;6.32;3.42;;;5.40;99.90;;;;;;8207413;28;20475;-81
2023/03/18 01:28:19;;;;;;;6.70;3.08;;;5.50;99.90;;;;;;8208226;28;20027;-81
2023/03/18 01:32:20;;;;;;;8.05;3.13;;;5.50;99.90;;;;;;8204247;28;20034;-81
2023/03/18 01:36:21;;;;;;;5.60;2.70;;;5.40;99.90;;;;;;8206214;28;20031;-81
2023/03/18 01:40:22;;;;;;;5.97;2.72;;;5.40;99.90;;;;;;8212550;28;20030;-81
2023/03/18 01:44:24;;;;;;;7.00;2.90;;;5.80;99.90;;;;;;8204755;28;20452;-81
2023/03/18 01:48:28;;;;;;;6.85;3.15;;;5.80;99.90;;;;;;8205599;28;20027;-81
2023/03/18 01:52:31;;;;;;;4.50;2.35;;;5.50;99.90;;;;;;8207522;28;20102;-81
2023/03/18 01:56:35;;;;;;;6.22;2.50;;;5.10;99.90;;;;;;8204414;28;20023;-81
2023/03/18 02:00:40;;;;;;;5.57;2.22;;;5.20;99.90;;;;;;8203165;28;20046;-81
2023/03/18 02:04:53;;;;;;;5.30;3.00;;;5.20;99.90;;;;;;8199350;28;20039;-81
2023/03/18 02:08:54;;;;;;;5.40;2.47;;;5.10;99.90;;;;;;8203874;28;20031;-81
2023/03/18 02:12:59;;;;;;;4.85;2.30;;;4.80;99.90;;;;;;8206274;28;20028;-82
2023/03/18 02:17:09;;;;;;;6.68;2.40;;;4.80;99.90;;;;;;8204224;28;20546;-81
2023/03/18 02:21:30;;;;;;;4.57;2.03;;;4.90;99.90;;;;;;8203620;28;20090;-81
2023/03/18 02:25:57;;;;;;;3.45;2.33;;;5.00;99.90;;;;;;8202680;28;20027;-82
2023/03/18 02:30:04;;;;;;;4.00;1.85;;;5.10;99.90;;;;;;8202848;28;20034;-82
2023/03/18 02:34:06;;;;;;;5.28;2.17;;;5.10;99.90;;;;;;8203668;28;20027;-82
2023/03/18 02:38:07;;;;;;;3.22;1.52;;;5.00;99.90;;;;;;8203889;28;20028;-82
2023/03/18 02:42:12;;;;;;;3.75;1.58;;;4.90;99.90;;;;;;8202571;28;20027;-81
2023/03/18 02:46:29;;;;;;;3.05;1.65;;;4.80;99.90;;;;;;8202483;28;20050;-82
2023/03/18 02:50:30;;;;;;;2.17;1.45;;;5.00;99.90;;;;;;8223960;23;20047;-81
2023/03/18 02:54:31;;;;;;;3.78;1.77;;;5.00;99.90;;;;;;8203669;28;20031;-81
2023/03/18 02:58:32;;;;;;;3.97;1.90;;;5.10;99.90;;;;;;8204002;28;20159;-81
2023/03/18 03:02:42;;;;;;;3.13;1.77;;;5.10;99.90;;;;;;8203296;28;20435;-79
2023/03/18 03:06:43;;;;;;;4.30;1.80;;;5.10;99.90;;;;;;8203763;28;20114;-82
2023/03/18 03:10:45;;;;;;;4.25;1.95;;;4.90;99.90;;;;;;8204174;28;20604;-81
2023/03/18 03:14:45;;;;;;;3.80;1.85;;;4.90;99.90;;;;;;8185825;28;20027;-82
2023/03/18 03:18:46;;;;;;;4.93;1.90;;;4.80;99.90;;;;;;8204427;28;20024;-82
2023/03/18 03:22:47;;;;;;;3.53;2.20;;;4.80;99.90;;;;;;8197984;23;20043;-78
2023/03/18 03:26:47;;;;;;;3.58;2.00;;;4.90;99.90;;;;;;8162934;29;20276;-78
2023/03/18 03:30:48;;;;;;;4.15;1.85;;;4.90;99.90;;;;;;8164737;29;20035;-78
2023/03/18 03:34:49;;;;;;;4.35;1.95;;;4.80;99.90;;;;;;8162168;29;20489;-78
2023/03/18 03:38:49;;;;;;;2.28;1.40;;;4.70;99.90;;;;;;8162596;29;20032;-78
2023/03/18 03:42:50;;;;;;;2.13;1.60;;;4.60;99.90;;;;;;8162661;29;20589;-79
2023/03/18 03:46:51;;;;;;;3.40;1.75;;;4.50;99.90;;;;;;8162817;29;20023;-78
2023/03/18 03:50:51;;;;;;;2.95;1.50;;;4.50;99.90;;;;;;8162423;29;20063;-78
2023/03/18 03:54:53;;;;;;;5.03;1.77;;;4.40;99.90;;;;;;8163496;29;20062;-79
2023/03/18 03:58:54;;;;;;;3.90;2.00;;;4.40;99.90;;;;;;8162001;29;20035;-78
2023/03/18 04:02:55;;;;;;;2.45;1.67;;;4.30;99.90;;;;;;8162047;29;20032;-78
2023/03/18 04:06:57;;;;;;;3.05;1.77;;;4.30;99.90;;;;;;8162219;29;20031;-78
2023/03/18 04:10:58;;;;;;;4.22;1.80;;;4.20;99.90;;;;;;8162138;29;20024;-78
2023/03/18 04:14:59;;;;;;;3.05;1.90;;;4.30;99.90;;;;;;8162737;29;20032;-78
2023/03/18 04:18:59;;;;;;;3.10;1.65;;;4.40;99.90;;;;;;8161586;29;20028;-78
2023/03/18 04:23:00;;;;;;;3.28;1.88;;;4.40;99.90;;;;;;8161514;29;20408;-78
2023/03/18 04:27:02;;;;;;;3.45;1.90;;;4.60;99.90;;;;;;8168668;29;20592;-77
2023/03/18 04:31:03;;;;;;;4.95;2.33;;;4.80;99.90;;;;;;8177169;28;20397;-78
2023/03/18 04:35:04;;;;;;;5.72;2.10;;;5.00;99.90;;;;;;8162827;29;20102;-78
2023/03/18 04:39:05;;;;;;;5.15;2.00;;;5.20;99.90;;;;;;8161788;29;20145;-78
2023/03/18 04:43:05;;;;;;;5.15;2.42;;;5.00;99.90;;;;;;8161252;29;20020;-78
2023/03/18 04:47:06;;;;;;;5.85;2.28;;;4.70;99.90;;;;;;8161151;29;20107;-78
2023/03/18 04:51:08;;;;;;;3.78;2.08;;;4.60;99.90;;;;;;8161857;29;20529;-78
2023/03/18 04:55:10;;;;;;;4.50;2.05;;;4.60;99.90;;;;;;8161851;29;20086;-78
2023/03/18 04:59:10;;;;;;;6.38;1.83;;;4.90;99.90;;;;;;8161219;29;20023;-79
2023/03/18 05:03:11;;;;;;;3.35;1.85;;;4.90;99.90;;;;;;8174737;28;20039;-78
2023/03/18 05:07:14;;;;;;;3.72;2.17;;;4.90;99.90;;;;;;8161406;29;20063;-79
2023/03/18 05:11:14;;;;;;;3.92;2.05;;;4.60;99.90;;;;;;8159613;29;20059;-78
2023/03/18 05:15:15;;;;;;;3.33;1.98;;;4.50;99.90;;;;;;8161165;29;20026;-77
2023/03/18 05:19:16;;;;;;;3.97;2.40;;;4.40;99.90;;;;;;8161699;29;20027;-79
2023/03/18 05:23:16;;;;;;;4.32;2.05;;;4.30;99.90;;;;;;8160079;29;20032;-80
2023/03/18 05:27:18;;;;;;;5.53;2.53;;;4.10;99.90;;;;;;8162417;29;20032;-79
2023/03/18 05:31:19;;;;;;;5.05;2.45;;;3.90;99.90;;;;;;8157182;29;20055;-80
2023/03/18 05:35:20;;;;;;;5.45;2.30;;;4.00;99.90;;;;;;8157474;29;20028;-79
2023/03/18 05:39:21;;;;;;;5.72;2.78;;;4.30;99.90;;;;;;8162552;29;20062;-79
2023/03/18 05:43:23;;;;;;;7.35;2.65;;;4.70;99.90;;;;;;8164088;29;20024;-79
2023/03/18 05:47:24;;;;;;;5.55;2.35;;;4.70;99.90;;;;;;8169267;29;20050;-79
2023/03/18 05:51:25;;;;;;;6.03;2.53;;;4.50;99.90;;;;;;8168761;29;20522;-80
2023/03/18 05:55:27;;;;;;;6.28;2.47;;;4.40;99.90;;;;;;8166997;29;20509;-80
2023/03/18 05:59:29;;;;;;;6.85;3.72;;;4.30;99.90;;;;;;8166445;29;20068;-80
2023/03/18 06:03:29;;;;;;;7.25;3.30;;;4.20;99.90;;;;;;8170179;29;20024;-79
2023/03/18 06:07:30;;;;;;;6.20;2.72;;;4.70;99.90;;;;;;8175386;29;20063;-80
2023/03/18 06:11:30;;;;;;;5.85;2.75;;;4.80;99.90;;;;;;8170070;29;20563;-79
2023/03/18 06:15:31;;;;;;;10.00;3.45;;;4.90;99.90;;;;;;8166702;29;20032;-80
2023/03/18 06:19:33;;;;;;;7.50;3.50;;;5.30;99.90;;;;;;8168793;29;20520;-80
2023/03/18 06:23:33;;;;;;;8.43;3.40;;;5.80;99.90;;;;;;8180360;28;20091;-80
2023/03/18 06:27:34;;;;;;;8.38;3.70;;;5.90;99.90;;;;;;8165151;29;20020;-79
2023/03/18 06:31:36;;;;;;;5.53;3.00;;;6.00;99.90;;;;;;8164368;29;20024;-80
2023/03/18 06:35:37;;;;;;;7.05;3.28;;;6.20;99.90;;;;;;8171059;29;20077;-80
2023/03/18 06:39:37;;;;;;;6.68;3.63;;;6.20;99.90;;;;;;8162883;29;20165;-80
2023/03/18 06:43:38;;;;;;;9.52;4.47;;;6.30;99.90;;;;;;8165286;29;20134;-80
2023/03/18 06:47:39;;;;;;;6.63;3.63;;;6.40;99.90;;;;;;8165869;29;20027;-79
2023/03/18 06:51:41;;;;;;;8.43;4.40;;;6.60;99.90;;;;;;8166188;28;20031;-79
2023/03/18 06:55:42;;;;;;;13.73;4.82;;;6.50;99.90;;;;;;8181274;29;20047;-79
2023/03/18 06:59:42;;;;;;;12.23;4.53;;;6.60;99.90;;;;;;8167464;29;20059;-80
2023/03/18 07:03:43;;;;;;;8.43;4.10;;;6.40;99.90;;;;;;8166979;29;20500;-80
2023/03/18 07:07:47;;;;;;;8.48;4.57;;;6.40;99.90;;;;;;8164318;29;20044;-80
2023/03/18 07:11:47;;;;;;;7.93;4.25;;;6.50;99.90;;;;;;8165508;29;20015;-80
2023/03/18 07:15:48;;;;;;;8.13;5.18;;;6.30;99.90;;;;;;8162908;29;20035;-80
2023/03/18 07:19:49;;;;;;;11.70;4.95;;;6.50;99.90;;;;;;8163338;29;20028;-80
2023/03/18 07:23:50;;;;;;;8.52;4.45;;;6.50;99.90;;;;;;8163589;29;20038;-80
2023/03/18 07:27:52;;;;;;;9.43;4.75;;;6.70;99.90;;;;;;8153624;29;20063;-80
2023/03/18 07:31:52;;;;;;;8.50;4.50;;;7.30;99.90;;;;;;8162276;29;20022;-80
2023/03/18 07:35:53;;;;;;;8.98;4.60;;;7.60;99.90;;;;;;8164174;29;20024;-80
2023/03/18 07:39:53;;;;;;;9.45;5.32;;;8.00;99.90;;;;;;8157452;29;20114;-80
2023/03/18 07:43:54;;;;;;;10.60;5.10;;;8.10;99.90;;;;;;8166446;29;20038;-80
2023/03/18 07:47:55;;;;;;;6.80;4.07;;;8.30;99.90;;;;;;8172592;29;20027;-78
2023/03/18 07:51:55;;;;;;;7.90;4.68;;;8.50;99.90;;;;;;8170893;29;20024;-80
2023/03/18 07:55:56;;;;;;;9.77;4.82;;;8.60;99.90;;;;;;8170821;29;20031;-79
2023/03/18 07:59:56;;;;;;;7.97;4.35;;;8.80;99.90;;;;;;8164534;29;20040;-80
2023/03/18 08:03:57;;;;;;;8.85;5.03;;;8.50;99.90;;;;;;8167168;29;20071;-79
2023/03/18 08:07:58;;;;;;;9.32;4.78;;;8.70;99.90;;;;;;8163058;29;20403;-79
2023/03/18 08:11:59;;;;;;;9.57;5.05;;;8.80;99.90;;;;;;8162147;29;20481;-80
2023/03/18 08:15:59;;;;;;;14.73;5.07;;;9.30;99.90;;;;;;8161343;29;20055;-80
2023/03/18 08:20:00;;;;;;;9.25;4.68;;;9.50;99.90;;;;;;8161855;29;20492;-80
2023/03/18 08:24:01;;;;;;;8.82;4.85;;;9.90;99.90;;;;;;8162096;29;20031;-81
2023/03/18 08:28:01;;;;;;;8.50;4.72;;;10.10;99.90;;;;;;8162202;29;20130;-80
2023/03/18 08:32:02;;;;;;;8.48;5.00;;;10.50;99.90;;;;;;8159971;29;20090;-80
2023/03/18 08:36:03;;;;;;;9.57;4.95;;;10.70;99.90;;;;;;8163805;29;20027;-81
2023/03/18 08:40:04;;;;;;;10.52;5.82;;;11.00;99.90;;;;;;8163953;29;20034;-79
2023/03/18 08:44:07;;;;;;;11.35;5.20;;;10.90;99.90;;;;;;8176702;29;20028;-81
2023/03/18 08:48:08;;;;;;;9.73;5.10;;;11.00;99.90;;;;;;8176396;29;20115;-80
2023/03/18 08:52:09;;;;;;;8.63;4.90;;;11.50;99.90;;;;;;8165086;29;20024;-81
2023/03/18 08:56:11;;;;;;;12.13;5.28;;;11.90;99.90;;;;;;8160976;29;20055;-81
2023/03/18 09:00:14;;;;;;;10.25;5.07;;;12.30;99.90;;;;;;8158594;29;20411;-80
2023/03/18 09:04:14;;;;;;;9.13;4.90;;;12.40;99.90;;;;;;8161586;29;20083;-80
2023/03/18 09:08:15;;;;;;;9.95;5.00;;;12.70;99.90;;;;;;8161404;29;20489;-79
2023/03/18 09:12:16;;;;;;;8.55;4.70;;;13.10;99.90;;;;;;8161445;29;20064;-79
2023/03/18 09:16:17;;;;;;;11.30;4.65;;;13.10;99.90;;;;;;8164864;29;20030;-79
2023/03/18 09:20:17;;;;;;;8.25;4.20;;;13.10;99.90;;;;;;8166948;29;20031;-80
2023/03/18 09:24:18;;;;;;;8.15;4.15;;;13.50;99.90;;;;;;8164442;29;20119;-80
2023/03/18 09:28:22;;;;;;;6.97;3.95;;;13.60;99.90;;;;;;8170333;29;20028;-80
2023/03/18 09:32:24;;;;;;;7.85;4.25;;;13.90;99.90;;;;;;8164297;29;20180;-80
2023/03/18 09:36:26;;;;;;;6.47;3.80;;;14.10;99.90;;;;;;8181364;28;20047;-80
2023/03/18 09:40:30;;;;;;;9.65;4.18;;;14.50;99.90;;;;;;8183727;28;20441;-80
2023/03/18 09:44:33;;;;;;;7.53;3.97;;;15.10;99.90;;;;;;8168420;29;20035;-79
2023/03/18 09:48:58;;;;;;;5.38;3.38;;;15.70;99.90;;;;;;8174660;29;20543;-80
2023/03/18 09:53:15;;;;;;;6.40;3.05;;;16.20;99.90;;;;;;8167291;29;20664;-80
2023/03/18 09:57:22;;;;;;;6.13;3.10;;;16.60;99.90;;;;;;8167107;29;20059;-80
2023/03/18 10:01:26;;;;;;;5.82;2.97;;;16.80;99.90;;;;;;8166015;29;20027;-81
2023/03/18 10:05:34;;;;;;;6.47;2.10;;;17.20;99.90;;;;;;8150811;29;20071;-80
2023/03/18 10:09:43;;;;;;;3.08;2.03;;;17.60;99.90;;;;;;8153742;29;20393;-80
2023/03/18 10:13:53;;;;;;;2.35;1.33;;;18.00;99.90;;;;;;8169951;29;20438;-81
2023/03/18 10:18:23;;;;;;;4.00;1.88;;;18.30;97.50;;;;;;8168472;29;20102;-81
2023/03/18 10:22:34;;;;;;;3.40;1.88;;;18.50;98.60;;;;;;8165490;29;20039;-80
2023/03/18 10:26:56;;;;;;;4.60;2.20;;;19.10;96.50;;;;;;8164779;29;20253;-80
2023/03/18 10:31:48;;;;;;;4.82;2.30;;;18.80;91.10;;;;;;8164153;29;20075;-80
2023/03/18 10:36:03;;;;;;;;;;;19.70;92.80;;;;;;8124918;29;20043;-80
2023/03/18 10:40:16;;;;;;;4.93;2.58;;;19.80;93.50;;;;;;8165407;29;19917;-79
2023/03/18 10:44:31;;;;;;;4.80;2.50;;;20.60;90.10;;;;;;8164080;29;20038;-80
2023/03/18 10:48:37;;;;;;;4.78;2.30;;;21.50;91.00;;;;;;8164795;29;20122;-80
2023/03/18 10:53:16;;;;;;;6.68;2.80;;;21.90;83.00;;;;;;8164999;29;20051;-80
2023/03/18 10:57:19;;;;;;;8.82;2.70;;;22.50;81.70;;;;;;8143145;29;20116;-79
2023/03/18 11:01:22;;;;;;;5.45;2.70;;;22.40;75.80;;;;;;8164737;29;20028;-80
2023/03/18 11:05:23;;;;;;;4.22;2.42;;;22.30;73.60;;;;;;8166226;29;20035;-84
2023/03/18 11:09:41;;;;;;;4.30;2.45;;;23.00;76.50;;;;;;8174640;29;20619;-81
2023/03/18 11:14:06;;;;;;;4.30;2.40;;;23.00;73.80;;;;;;8173926;28;20404;-81
2023/03/18 11:18:18;;;;;;;5.90;2.53;;;22.90;67.80;;;;;;8165139;29;20044;-81
2023/03/18 11:22:24;;;;;;;8.00;3.08;;;23.40;72.50;;;;;;8180222;28;20047;-81
2023/03/18 11:26:27;;;;;;;5.63;2.60;;;24.20;68.60;;;;;;8165046;29;20023;-80
2023/03/18 11:30:33;;;;;;;4.97;2.67;;;24.90;69.30;;;;;;8165566;29;20450;-80
2023/03/18 11:34:34;;;;;;;5.80;2.95;;;24.00;68.10;;;;;;8163972;29;20452;-80
2023/03/18 11:38:36;;;;;;;4.43;2.63;;;23.80;66.80;;;;;;8169531;29;20023;-80
2023/03/18 11:42:39;;;;;;;8.02;3.10;;;24.70;68.20;;;;;;8172698;29;20120;-79
2023/03/18 11:46:46;;;;;;;5.85;2.60;;;24.70;61.20;;;;;;8186026;29;20027;-80
2023/03/18 11:51:25;;;;;;;4.20;2.60;;;24.40;61.10;;;;;;8183223;28;20472;-81
2023/03/18 11:55:38;;;;;;;5.80;2.90;;;23.90;64.40;;;;;;8186163;28;20028;-81
2023/03/18 12:00:00;;;;;;;4.60;2.88;;;24.40;62.30;;;;;;8184483;28;20496;-80
2023/03/18 12:09:14;;;;;;;4.35;2.70;;;25.00;60.40;;;;;;8202935;28;20309;-83
2023/03/18 12:13:26;;;;;;;4.88;3.17;;;25.20;57.40;;;;;;8204448;28;20277;-83
2023/03/18 12:17:42;;;;;;;11.57;2.90;;;24.60;58.50;;;;;;8208611;28;20031;-84
2023/03/18 12:21:54;;;;;;;5.45;3.05;;;24.50;56.90;;;;;;8204223;28;20114;-82
2023/03/18 12:26:16;;;;;;;6.72;2.90;;;24.50;58.20;;;;;;8205175;28;20041;-83
2023/03/18 12:30:51;;;;;;;5.78;2.95;;;24.10;57.80;;;;;;8209851;28;20023;-83
2023/03/18 12:35:13;;;;;;;8.15;3.60;;;23.40;60.20;;;;;;8207656;28;20023;-84
2023/03/18 12:39:55;;;;;;;5.82;2.92;;;24.60;58.50;;;;;;8211225;28;20053;-84
2023/03/18 12:44:35;;;;;;;6.43;2.95;;;25.30;55.20;;;;;;8208653;28;20511;-82
2023/03/18 12:48:45;;;;;;;7.18;3.47;;;24.70;54.70;;;;;;8191520;28;20404;-83
2023/03/18 12:52:52;;;;;;;7.37;3.50;;;26.10;54.70;;;;;;8218986;28;20118;-84
2023/03/18 12:57:00;;;;;;;6.00;3.22;;;26.00;53.00;;;;;;8191219;28;20022;-80
2023/03/18 13:01:26;;;;;;;6.10;3.15;;;25.00;54.60;;;;;;8202080;28;20043;-81
2023/03/18 13:05:45;;;;;;;5.88;3.15;;;26.40;53.20;;;;;;8204838;28;20027;-79
2023/03/18 13:09:57;;;;;;;5.78;3.35;;;25.90;53.70;;;;;;8200687;28;20172;-80
2023/03/18 13:14:20;;;;;;;6.20;2.85;;;25.10;54.40;;;;;;8189712;28;20119;-79
2023/03/18 13:18:49;;;;;;;5.32;2.78;;;25.30;53.80;;;;;;8207734;28;20028;-81
2023/03/18 13:23:14;;;;;;;5.80;3.05;;;25.80;51.00;;;;;;8209409;28;20034;-81
2023/03/18 13:27:32;;;;;;;6.72;3.20;;;27.70;49.00;;;;;;8205338;28;20508;-81
2023/03/18 13:31:38;;;;;;;4.90;2.45;;;28.40;49.80;;;;;;8199708;28;20071;-81
2023/03/18 13:35:54;;;;;;;4.32;2.65;;;29.20;47.30;;;;;;8199424;28;20440;-81
2023/03/18 13:40:08;;;;;;;4.47;2.38;;;29.90;46.30;;;;;;8204813;28;20034;-79
2023/03/18 13:44:22;;;;;;;6.30;3.00;;;29.70;43.20;;;;;;8195456;28;20560;-80
2023/03/18 13:48:28;;;;;;;4.90;2.95;;;29.40;42.80;;;;;;8201637;28;20042;-80
2023/03/18 13:52:34;;;;;;;4.53;2.63;;;30.40;43.10;;;;;;8188473;28;20027;-78
2023/03/18 13:56:41;;;;;;;4.30;2.33;;;29.10;43.50;;;;;;8199845;28;20019;-80
2023/03/18 14:00:45;;;;;;;6.55;2.22;;;30.40;45.70;;;;;;8200700;28;20424;-80
2023/03/18 14:04:48;;;;;;;3.85;2.22;;;28.40;43.10;;;;;;8202591;28;20081;-80
2023/03/18 14:08:52;;;;;;;5.07;2.20;;;28.20;46.60;;;;;;8199350;28;20027;-79
2023/03/18 14:12:53;;;;;;;4.60;2.30;;;29.30;42.60;;;;;;8201710;28;20496;-79
2023/03/18 14:16:55;;;;;;;3.05;1.70;;;27.40;45.10;;;;;;8196412;28;20027;-80
2023/03/18 14:21:00;;;;;;;2.78;1.65;;;27.70;46.20;;;;;;8199187;28;20049;-79
2023/03/18 14:25:29;;;;;;;2.35;1.52;;;27.90;46.10;;;;;;8201333;28;20031;-79
2023/03/18 14:29:37;;;;;;;4.25;1.85;;;29.30;42.30;;;;;;8191160;28;20179;-79
2023/03/18 14:34:16;;;;;;;4.85;1.92;;;30.20;41.00;;;;;;8199068;28;20024;-80
2023/03/18 14:38:35;;;;;;;2.08;1.40;;;28.20;41.10;;;;;;8170500;28;20352;-79
2023/03/18 14:42:58;;;;;;;2.55;1.40;;;28.50;41.50;;;;;;8198600;28;20027;-80
2023/03/18 14:47:03;;;;;;;2.58;1.60;;;28.60;43.80;;;;;;8197279;28;20038;-80
2023/03/18 14:51:10;;;;;;;1.77;1.50;;;29.00;40.60;;;;;;8199677;28;20031;-79
2023/03/18 14:55:23;;;;;;;3.58;1.50;;;28.90;42.30;;;;;;8192008;28;20364;-79
2023/03/18 14:59:24;;;;;;;3.83;2.13;;;28.30;44.50;;;;;;8196228;28;20034;-79
2023/03/18 15:03:28;;;;;;;4.57;2.15;;;28.40;41.80;;;;;;8197084;28;20495;-79
2023/03/18 15:07:35;;;;;;;4.15;1.85;;;28.70;42.50;;;;;;8194962;28;20484;-80
2023/03/18 15:11:40;;;;;;;3.78;1.88;;;29.30;39.70;;;;;;8176561;28;20035;-79
2023/03/18 15:15:41;;;;;;;2.85;1.83;;;28.70;42.00;;;;;;8194517;28;20122;-79
2023/03/18 15:19:43;;;;;;;3.25;2.00;;;29.40;41.80;;;;;;8180286;28;20027;-79
2023/03/18 15:23:51;;;;;;;3.90;2.20;;;26.60;49.40;;;;;;8193943;28;20518;-79
2023/03/18 15:27:54;;;;;;;6.70;2.22;;;24.30;50.60;;;;;;8194819;28;20046;-79
2023/03/18 15:32:15;;;;;;;2.85;1.90;;;23.30;51.30;;;;;;8192116;28;20057;-78
2023/03/18 15:36:15;;;;;;;3.20;1.88;;;21.10;54.50;;;;;;8193233;28;20027;-79
2023/03/18 15:40:22;;;;;;;5.15;2.35;;;20.20;56.50;;;;;;8193704;28;20058;-79
2023/03/18 15:44:36;;;;;;;5.47;1.70;;;19.50;59.80;;;;;;8193919;28;20031;-79
2023/03/18 15:48:42;;;;;;;4.47;2.20;;;19.10;61.20;;;;;;8178725;28;20024;-79
2023/03/18 15:52:43;;;;;;;4.53;2.25;;;18.90;68.40;;;;;;8193735;28;20511;-79
2023/03/18 15:56:48;;;;;;;3.60;1.88;;;18.80;71.00;;;;;;8189321;28;20030;-79
2023/03/18 16:00:49;;;;;;;4.03;1.90;;;18.60;74.20;;;;;;8191422;28;20031;-79
2023/03/18 16:04:50;;;;;;;5.85;2.10;;;18.60;68.40;;;;;;8195449;28;20190;-78
2023/03/18 16:08:51;;;;;;;3.00;1.13;;;19.20;64.00;;;;;;8198831;28;20035;-79
2023/03/18 16:12:54;;;;;;;3.88;1.48;;;21.00;57.90;;;;;;8199877;28;20022;-80
2023/03/18 16:16:54;;;;;;;1.30;1.00;;;21.80;57.60;;;;;;8199515;28;20034;-81
2023/03/18 16:20:56;;;;;;;7.35;2.33;;;22.20;57.40;;;;;;8206289;28;20035;-80
2023/03/18 16:24:56;;;;;;;21.63;10.93;;;22.40;56.20;;;;;;8204850;28;20035;-80
2023/03/18 16:28:57;;;;;;;2.88;1.77;;;22.10;55.80;;;;;;8206138;28;20031;-80
2023/03/18 16:32:57;;;;;;;5.70;1.58;;;21.30;58.30;;;;;;8204369;28;20042;-79
2023/03/18 16:36:58;;;;;;;6.45;3.00;;;20.40;59.50;;;;;;8193909;28;20060;-78
2023/03/18 16:40:59;;;;;;;4.40;1.73;;;19.20;62.10;;;;;;8176564;28;20023;-78
2023/03/18 16:44:59;;;;;;;3.33;1.90;;;18.10;65.40;;;;;;8198533;28;20035;-79
2023/03/18 16:49:00;;;;;;;2.25;1.17;;;17.50;68.70;;;;;;8196641;28;20496;-79
2023/03/18 16:53:02;;;;;;;3.50;1.30;;;16.80;71.90;;;;;;8194226;28;20047;-79
2023/03/18 16:57:04;;;;;;;3.38;1.30;;;16.10;77.20;;;;;;8194234;28;20519;-79
2023/03/18 17:01:06;;;;;;;2.85;1.05;;;15.50;82.90;;;;;;8195648;28;20067;-79
2023/03/18 17:05:13;;;;;;;1.00;0.80;;;15.00;83.40;;;;;;8197775;28;20567;-79
2023/03/18 17:09:14;;;;;;;2.20;1.20;;;14.70;85.60;;;;;;8197057;28;20042;-78
2023/03/18 17:13:21;;;;;;;7.40;1.98;;;14.40;87.40;;;;;;8196279;28;20038;-79
2023/03/18 17:17:27;;;;;;;5.55;2.55;;;14.20;88.40;;;;;;8176778;28;20031;-78
2023/03/18 17:21:29;;;;;;;6.35;3.00;;;13.90;88.90;;;;;;8179207;28;20050;-79
2023/03/18 17:25:30;;;;;;;4.68;2.50;;;13.90;90.10;;;;;;8194332;28;20037;-80
2023/03/18 17:29:31;;;;;;;4.63;1.98;;;13.80;91.60;;;;;;8175561;28;20059;-78
2023/03/18 17:33:34;;;;;;;3.47;1.55;;;13.70;92.50;;;;;;8193154;28;20024;-78
2023/03/18 17:37:35;;;;;;;6.97;1.95;;;13.90;93.30;;;;;;8199278;28;20506;-80
2023/03/18 17:41:35;;;;;;;5.93;1.85;;;14.00;93.20;;;;;;8197490;28;20031;-78
2023/03/18 17:45:36;;;;;;;5.28;1.70;;;13.50;94.30;;;;;;8201440;28;20024;-78
2023/03/18 17:49:36;;;;;;;5.45;2.10;;;12.90;97.20;;;;;;8199834;28;20530;-79
2023/03/18 17:53:40;;;;;;;4.03;1.85;;;12.30;99.90;;;;;;8198329;28;20412;-79
2023/03/18 17:57:41;;;;;;;7.75;2.25;;;11.70;99.90;;;;;;8201894;28;20027;-78
2023/03/18 18:01:46;;;;;;;6.68;3.17;;;11.30;99.90;;;;;;8195304;28;20127;-79
2023/03/18 18:05:47;;;;;;;13.05;2.08;;;11.30;99.90;;;;;;8191906;28;20031;-79
2023/03/18 18:09:48;;;;;;;12.50;1.73;;;11.70;99.90;;;;;;8197279;28;20019;-79
2023/03/18 18:13:51;;;;;;;11.63;2.05;;;11.60;99.90;;;;;;8198046;28;20119;-80
2023/03/18 18:17:52;;;;;;;4.88;1.40;;;11.10;99.90;;;;;;8199257;28;20055;-78
2023/03/18 18:21:53;;;;;;;10.38;2.17;;;10.80;99.90;;;;;;8198662;28;20418;-79
2023/03/18 18:25:56;;;;;;;7.35;2.35;;;10.30;99.90;;;;;;8199507;28;20526;-79
2023/03/18 18:29:57;;;;;;;5.35;2.22;;;10.00;99.90;;;;;;8200118;28;20037;-79
2023/03/18 18:33:57;;;;;;;6.97;2.17;;;9.80;99.90;;;;;;8197145;28;20058;-78
2023/03/18 18:37:58;;;;;;;10.32;3.97;;;9.60;99.90;;;;;;8195645;28;20077;-78
2023/03/18 18:41:58;;;;;;;11.85;3.70;;;9.40;99.90;;;;;;8197019;28;20086;-79
2023/03/18 18:46:00;;;;;;;7.55;3.67;;;9.30;99.90;;;;;;8196106;28;20035;-80
2023/03/18 18:50:00;;;;;;;8.13;3.20;;;9.10;99.90;;;;;;8197525;28;20419;-79
2023/03/18 18:54:01;;;;;;;10.38;3.22;;;9.00;99.90;;;;;;8197262;28;20024;-79
2023/03/18 18:58:03;;;;;;;8.20;3.17;;;9.10;99.90;;;;;;8178420;28;20031;-79
2023/03/18 19:02:24;;;;;;;8.80;4.30;;;9.20;99.90;;;;;;8197451;28;20640;-78
2023/03/18 19:06:26;;;;;;;;;;;9.20;99.90;;;;;;8198226;28;20228;-79
2023/03/18 19:10:26;;;;;;;5.45;1.80;;;9.20;99.90;;;;;;8180579;28;19912;-79
2023/03/18 19:14:28;;;;;;;5.07;1.60;;;9.00;99.90;;;;;;8196880;28;20037;-78
2023/03/18 19:18:36;;;;;;;5.85;1.30;;;9.20;99.90;;;;;;8196759;28;20452;-79
2023/03/18 19:22:37;;;;;;;3.85;1.65;;;9.10;99.90;;;;;;8195827;28;20114;-79
2023/03/18 19:26:38;;;;;;;2.80;1.70;;;8.90;99.90;;;;;;8197847;28;20019;-79
2023/03/18 19:30:38;;;;;;;4.53;2.88;;;8.80;99.90;;;;;;8198404;28;20231;-79
2023/03/18 19:34:39;;;;;;;21.05;7.97;;;8.80;99.90;;;;;;8196412;28;20035;-78
2023/03/18 19:38:40;;;;;;;9.90;4.15;;;8.70;99.90;;;;;;8195799;28;20034;-78
2023/03/18 19:42:40;;;;;;;8.18;3.67;;;8.70;99.90;;;;;;8195130;28;20055;-78
2023/03/18 19:46:41;;;;;;;6.03;3.42;;;8.70;99.90;;;;;;8196927;28;20063;-79
2023/03/18 19:50:41;;;;;;;8.77;3.72;;;8.60;99.90;;;;;;8196235;28;20400;-78
2023/03/18 19:54:42;;;;;;;7.85;3.20;;;8.40;99.90;;;;;;8197000;28;20106;-78
2023/03/18 19:58:43;;;;;;;5.80;3.05;;;8.00;99.90;;;;;;8195976;28;20042;-79
2023/03/18 20:02:44;;;;;;;5.97;3.08;;;7.70;99.90;;;;;;8196731;28;20526;-79
2023/03/18 20:06:49;;;;;;;8.00;2.47;;;7.40;99.90;;;;;;8195647;28;20597;-79
2023/03/18 20:10:50;;;;;;;5.18;3.00;;;7.20;99.90;;;;;;8195630;28;20050;-80
2023/03/18 20:14:50;;;;;;;5.38;3.03;;;7.00;99.90;;;;;;8194513;28;20385;-79
2023/03/18 20:18:51;;;;;;;5.15;3.17;;;6.90;99.90;;;;;;8195896;28;20054;-78
2023/03/18 20:23:00;;;;;;;10.40;3.15;;;6.80;99.90;;;;;;8193321;28;21090;-78
2023/03/18 20:27:01;;;;;;;6.72;3.60;;;6.80;99.90;;;;;;8195837;28;20551;-78
2023/03/18 20:31:02;;;;;;;7.47;4.35;;;6.70;99.90;;;;;;8194774;28;20082;-78
2023/03/18 20:35:02;;;;;;;10.75;4.25;;;6.50;99.90;;;;;;8194200;28;20540;-78
2023/03/18 20:39:04;;;;;;;8.43;4.30;;;6.40;99.90;;;;;;8194038;28;20031;-78
2023/03/18 20:43:05;;;;;;;9.30;3.45;;;6.50;99.90;;;;;;8194037;28;20053;-78
2023/03/18 20:47:05;;;;;;;6.03;3.58;;;6.90;99.90;;;;;;8192588;28;20507;-78
2023/03/18 20:51:20;;;;;;;7.35;3.00;;;7.00;99.90;;;;;;8191788;28;20452;-79
2023/03/18 20:55:27;;;;;;;10.95;3.45;;;6.90;99.90;;;;;;8191907;28;20163;-79
2023/03/18 20:59:28;;;;;;;8.65;3.53;;;6.90;99.90;;;;;;8193719;28;20030;-78
2023/03/18 21:03:30;;;;;;;6.35;4.13;;;6.70;99.90;;;;;;8193574;28;20062;-78
2023/03/18 21:07:31;;;;;;;5.28;3.60;;;6.60;99.90;;;;;;8193554;28;20019;-78
2023/03/18 21:11:31;;;;;;;6.65;2.90;;;7.10;99.90;;;;;;8197688;28;20027;-78
2023/03/18 21:15:32;;;;;;;6.20;3.22;;;7.00;99.90;;;;;;8199700;28;20427;-78
2023/03/18 21:19:33;;;;;;;13.57;4.05;;;7.00;99.90;;;;;;8199777;28;20046;-78
2023/03/18 21:23:35;;;;;;;5.05;3.40;;;6.70;99.90;;;;;;8198746;28;20027;-78
2023/03/18 21:27:35;;;;;;;7.60;3.88;;;6.60;99.90;;;;;;8198508;28;20050;-78
2023/03/18 21:31:36;;;;;;;5.45;3.60;;;6.40;99.90;;;;;;8200230;28;20027;-78